Travelers Rest, SC (29690)

1:21 PM EST on November 28, 2014 (GMT -0500)
Ebenezer Community | Change Station
CLOSE
Current Station
Personal Weather Station
Location: Travelers Rest, SC
Elevation: 1152 ft
Nearby Weather Stations

Elev 1152 ft 34.99 °N, 82.47 °W | Updated 8 minutes ago

Clear
Clear
44.3 °F
Feels Like 44 °F
N
0.0
Wind Variable Wind from SSW
Gusts 5.0 mph

Today
High -- | Low -- °F
--% Chance of Precip.
Yesterday
High -- | Low -- °F
Precip. -- in
7:16 AM 5:18 PM
Waxing Crescent, 42% visible
Pressure 30.34 in
Visibility 10.0 miles
Clouds Clear
Windchill 44 °F
Dew Point 22 °F
Humidity 41%
Rainfall 0.00 in
Snow Depth Not available.
UV 4 out of 12
Pollen .30 out of 12
Air Quality Not available.
Flu Activity Not available.
METAR KGMU 281753Z 21006KT 10SM CLR 06/M08 A3032 RMK AO2 SLP272 T00611083 10067 21017 58022

More Conditions Fewer Conditions

Pressure 30.34 in
Visibility 10.0 miles
Clouds Clear
Windchill 44 °F
Dew Point 22 °F
Humidity 41%
Rainfall 0.00 in
Snow Depth Not available.
UV 4 out of 12
Pollen .30 out of 12
Air Quality Not available.
Flu Activity Not available.
METAR KGMU 281753Z 21006KT 10SM CLR 06/M08 A3032 RMK AO2 SLP272 T00611083 10067 21017 58022

More Conditions Fewer Conditions

10-Day Weather Forecast

Almanac

Astronomy

Nov. 28, 2014 Rise Set
Actual Time
Civil Twilight
Nautical Twilight
Astronomical Twilight
Moon
Length of Visible Light
Length of Day
Tomorrow will be .
, % of the Moon is Illuminated

Today's Extremes

State Highs State Lows

Community

WunderPhotos

Upload Photos

1,774,251 photos uploaded!

WunderBlogs® & News

Nearby

Air Quality

  Air Quality AQ Index Pollutant
Not available.

Snow Depth

Station Depth Elevation

Earthquake Activity

City Distance Mag. Time & Date
Minimum magnitude displayed is 2.5.

Coastal Water Temperatures

Place Temperature

Nearby Weather Stations